createdAt,value
2018-12-26T00:00:37.471Z,10.47
2018-12-26T00:03:06.961Z,10.70
2018-12-26T00:05:36.161Z,10.53
2018-12-26T00:08:05.471Z,10.50
2018-12-26T00:10:34.639Z,10.83
2018-12-26T00:13:03.836Z,11.00
2018-12-26T00:15:33.107Z,10.20
2018-12-26T00:18:02.391Z,10.50
2018-12-26T00:20:31.588Z,9.43
2018-12-26T00:23:00.784Z,9.90
2018-12-26T00:25:29.971Z,10.23
2018-12-26T00:27:59.336Z,9.67
2018-12-26T00:30:28.603Z,10.50
2018-12-26T00:32:57.776Z,11.20
2018-12-26T00:35:27.094Z,10.67
2018-12-26T00:37:56.283Z,10.60
2018-12-26T00:40:25.487Z,11.73
2018-12-26T00:42:54.784Z,11.53
2018-12-26T00:45:23.941Z,11.17
2018-12-26T00:47:53.103Z,11.10
2018-12-26T00:50:22.286Z,11.40
2018-12-26T00:52:51.528Z,12.10
2018-12-26T00:55:20.684Z,11.67
2018-12-26T00:57:49.867Z,12.10
2018-12-26T01:00:19.132Z,12.67
2018-12-26T01:02:48.422Z,12.03
2018-12-26T01:05:17.735Z,12.43
2018-12-26T01:07:46.975Z,12.50
2018-12-26T01:10:16.147Z,11.93
2018-12-26T01:12:45.315Z,11.97
2018-12-26T01:15:14.565Z,12.23
2018-12-26T01:17:43.760Z,12.30
2018-12-26T01:20:13.119Z,12.33
2018-12-26T01:22:42.367Z,12.70
2018-12-26T01:25:11.555Z,12.53
2018-12-26T01:27:40.731Z,12.57
2018-12-26T01:30:09.924Z,12.80
2018-12-26T01:32:39.139Z,13.13
2018-12-26T01:35:08.387Z,12.40
2018-12-26T01:37:37.576Z,12.23
2018-12-26T01:40:07.041Z,13.23
2018-12-26T01:42:36.272Z,13.00
2018-12-26T01:45:05.726Z,12.30
2018-12-26T01:47:34.980Z,11.83
2018-12-26T01:50:04.327Z,13.13
2018-12-26T01:52:33.528Z,13.13
2018-12-26T01:55:02.684Z,12.10
2018-12-26T01:57:31.856Z,12.13
2018-12-26T02:00:01.049Z,12.03
2018-12-26T02:02:30.225Z,11.93
2018-12-26T02:04:59.501Z,12.77
2018-12-26T02:07:28.657Z,12.30
2018-12-26T02:09:57.854Z,12.60
2018-12-26T02:12:27.148Z,12.20
2018-12-26T02:14:56.307Z,13.33
2018-12-26T02:17:25.487Z,13.20
2018-12-26T02:19:54.664Z,11.70
2018-12-26T02:22:23.855Z,12.13
2018-12-26T02:24:53.116Z,12.50
2018-12-26T02:27:22.287Z,12.63
2018-12-26T02:29:51.438Z,12.27
2018-12-26T02:32:20.624Z,12.47
2018-12-26T02:34:49.795Z,12.33
2018-12-26T02:37:19.040Z,11.90
2018-12-26T02:39:48.259Z,12.33
2018-12-26T02:42:17.784Z,12.43
2018-12-26T02:44:46.981Z,11.87
2018-12-26T02:47:16.135Z,13.17
2018-12-26T02:49:45.411Z,12.07
2018-12-26T02:52:14.008Z,12.43
2018-12-26T02:54:43.183Z,13.40
2018-12-26T02:57:12.580Z,11.30
2018-12-26T02:59:41.782Z,12.93
2018-12-26T03:02:10.961Z,13.20
2018-12-26T03:04:40.112Z,13.03
2018-12-26T03:07:09.336Z,12.80
2018-12-26T03:09:38.499Z,13.40
2018-12-26T03:12:07.696Z,14.00
2018-12-26T03:14:36.877Z,13.97
2018-12-26T03:17:06.028Z,12.87
2018-12-26T03:19:35.280Z,14.00
2018-12-26T03:22:04.435Z,13.87
2018-12-26T03:24:33.630Z,13.60
2018-12-26T03:27:02.868Z,14.03
2018-12-26T03:29:32.033Z,14.13
2018-12-26T03:32:01.222Z,14.07
2018-12-26T03:34:30.378Z,12.70
2018-12-26T03:36:59.568Z,13.60
2018-12-26T03:39:28.889Z,13.40
2018-12-26T03:41:58.468Z,12.77
2018-12-26T03:44:28.410Z,12.03
2018-12-26T03:46:57.654Z,12.73
2018-12-26T03:49:26.836Z,12.57
2018-12-26T03:51:56.031Z,12.10
2018-12-26T03:54:25.209Z,12.60
2018-12-26T03:56:55.761Z,12.27
2018-12-26T03:59:24.944Z,13.03
2018-12-26T04:01:54.099Z,12.47
2018-12-26T04:04:23.260Z,13.00
2018-12-26T04:06:52.456Z,12.23
2018-12-26T04:09:21.732Z,12.90
2018-12-26T04:11:51.064Z,12.57
2018-12-26T04:14:20.417Z,13.43
2018-12-26T04:16:49.599Z,12.40
2018-12-26T04:19:18.823Z,13.17
2018-12-26T04:21:48.007Z,13.37
2018-12-26T04:24:17.309Z,12.67
2018-12-26T04:26:46.476Z,13.70
2018-12-26T04:29:15.637Z,13.70
2018-12-26T04:31:44.776Z,14.00
2018-12-26T04:34:13.963Z,14.37
2018-12-26T04:36:43.123Z,14.00
2018-12-26T04:39:12.294Z,14.00
2018-12-26T04:41:41.458Z,13.57
2018-12-26T04:44:10.713Z,14.23
2018-12-26T04:46:39.878Z,12.83
2018-12-26T04:49:09.044Z,13.87
2018-12-26T04:51:38.241Z,13.30
2018-12-26T04:54:07.488Z,14.67
2018-12-26T04:56:36.679Z,13.53
2018-12-26T04:59:05.863Z,13.50
2018-12-26T05:01:35.060Z,12.90
2018-12-26T05:04:04.249Z,13.60
2018-12-26T05:06:33.413Z,13.83
2018-12-26T05:09:02.683Z,13.50
2018-12-26T05:11:31.862Z,13.70
2018-12-26T05:14:01.034Z,13.50
2018-12-26T05:16:30.233Z,13.50
2018-12-26T05:18:59.378Z,14.53
2018-12-26T05:21:28.580Z,13.17
2018-12-26T05:23:57.719Z,13.80
2018-12-26T05:26:27.051Z,14.70
2018-12-26T05:28:56.217Z,13.67
2018-12-26T05:31:25.390Z,13.57
2018-12-26T05:33:54.539Z,13.67
2018-12-26T05:36:23.851Z,13.33
2018-12-26T05:38:53.100Z,13.37
2018-12-26T05:41:22.251Z,14.13
2018-12-26T05:43:51.447Z,14.40
2018-12-26T05:46:20.609Z,13.77
2018-12-26T05:48:49.804Z,14.20
2018-12-26T05:51:19.040Z,14.63
2018-12-26T05:53:48.201Z,15.00
2018-12-26T05:56:17.471Z,15.80
2018-12-26T05:58:46.640Z,16.60
2018-12-26T06:01:15.810Z,16.17
2018-12-26T06:03:44.972Z,17.10
2018-12-26T06:06:14.132Z,17.47
2018-12-26T06:08:43.369Z,17.57
2018-12-26T06:11:12.543Z,16.73
2018-12-26T06:13:41.731Z,17.33
2018-12-26T06:16:11.088Z,18.10
2018-12-26T06:18:40.436Z,17.63
2018-12-26T06:21:09.680Z,18.80
2018-12-26T06:23:38.857Z,18.30
2018-12-26T06:26:08.012Z,17.83
2018-12-26T06:28:37.302Z,18.17
2018-12-26T06:31:06.455Z,18.27
2018-12-26T06:33:35.607Z,18.40
2018-12-26T06:36:04.800Z,18.17
2018-12-26T06:38:33.972Z,18.53
2018-12-26T06:41:03.132Z,18.37
2018-12-26T06:43:32.312Z,18.77
2018-12-26T06:46:01.486Z,17.87
2018-12-26T06:48:30.666Z,17.73
2018-12-26T06:50:59.823Z,18.20
2018-12-26T06:53:29.005Z,16.87
2018-12-26T06:55:58.169Z,17.13
2018-12-26T06:58:27.311Z,16.13
2018-12-26T07:00:56.516Z,15.57
2018-12-26T07:03:26.145Z,15.27
2018-12-26T07:05:55.453Z,15.20
2018-12-26T07:08:24.674Z,15.40
2018-12-26T07:10:53.851Z,15.27
2018-12-26T07:13:23.120Z,15.57
2018-12-26T07:15:52.284Z,15.37
2018-12-26T07:18:21.442Z,15.07
2018-12-26T07:20:50.617Z,15.60
2018-12-26T07:23:19.816Z,15.57
2018-12-26T07:25:49.058Z,17.27
2018-12-26T07:28:18.256Z,14.40
2018-12-26T07:30:47.439Z,14.53
2018-12-26T07:33:16.605Z,13.37
2018-12-26T07:35:45.800Z,15.60
2018-12-26T07:38:14.958Z,13.80
2018-12-26T07:40:44.212Z,12.73
2018-12-26T07:43:13.488Z,12.73
2018-12-26T07:45:42.744Z,12.43
2018-12-26T07:48:12.000Z,12.67
2018-12-26T07:50:41.157Z,11.90
2018-12-26T07:53:10.338Z,12.17
2018-12-26T07:55:39.532Z,12.50
2018-12-26T07:58:17.381Z,11.50
2018-12-26T08:00:39.777Z,11.67
2018-12-26T08:03:08.948Z,11.97
2018-12-26T08:05:38.148Z,11.30
2018-12-26T08:08:07.332Z,12.07
2018-12-26T08:10:36.503Z,11.97
2018-12-26T08:13:05.719Z,11.23
2018-12-26T08:15:34.944Z,13.17
2018-12-26T08:18:04.127Z,12.50
2018-12-26T08:20:33.308Z,12.50
2018-12-26T08:23:02.465Z,12.60
2018-12-26T08:25:31.656Z,12.97
2018-12-26T08:28:00.810Z,12.73
2018-12-26T08:30:29.979Z,12.77
2018-12-26T08:32:59.148Z,12.10
2018-12-26T08:35:28.335Z,12.93
2018-12-26T08:37:57.513Z,12.47
2018-12-26T08:40:26.658Z,12.53
2018-12-26T08:42:55.859Z,13.17
2018-12-26T08:45:25.037Z,13.27
2018-12-26T08:47:54.215Z,13.13
2018-12-26T08:50:23.392Z,13.50
2018-12-26T08:52:52.592Z,13.33
2018-12-26T08:55:21.763Z,13.47
2018-12-26T08:57:50.942Z,13.03
2018-12-26T09:00:20.136Z,14.23
2018-12-26T09:02:49.422Z,13.97
2018-12-26T09:05:18.698Z,13.93
2018-12-26T09:07:47.867Z,14.83
2018-12-26T09:10:17.058Z,15.50
2018-12-26T09:12:46.307Z,16.60
2018-12-26T09:15:15.463Z,15.90
2018-12-26T09:17:44.661Z,16.93
2018-12-26T09:20:13.845Z,18.20
2018-12-26T09:22:43.064Z,19.80
2018-12-26T09:25:12.252Z,19.30
2018-12-26T09:27:41.688Z,18.27
2018-12-26T09:30:11.512Z,19.90
2018-12-26T09:32:40.720Z,20.20
2018-12-26T09:35:10.412Z,18.20
2018-12-26T09:37:39.594Z,18.90
2018-12-26T09:40:09.000Z,19.80
2018-12-26T09:42:38.171Z,20.47
2018-12-26T09:45:08.101Z,21.77
2018-12-26T09:47:37.332Z,21.13
2018-12-26T09:50:06.746Z,22.73
2018-12-26T09:52:35.996Z,22.67
2018-12-26T09:55:05.611Z,22.57
2018-12-26T09:57:34.818Z,22.80
2018-12-26T10:00:04.011Z,23.57
2018-12-26T10:02:33.196Z,22.77
2018-12-26T10:05:02.425Z,23.47
2018-12-26T10:07:31.095Z,22.93
2018-12-26T10:10:00.261Z,24.50
2018-12-26T10:12:29.441Z,23.43
2018-12-26T10:14:58.623Z,22.27
2018-12-26T10:17:27.795Z,22.90
2018-12-26T10:19:56.975Z,23.63
2018-12-26T10:22:26.141Z,23.80
2018-12-26T10:24:55.356Z,22.13
2018-12-26T10:27:24.608Z,23.63
2018-12-26T10:29:53.782Z,24.23
2018-12-26T10:32:22.945Z,25.10
2018-12-26T10:34:52.153Z,26.27
2018-12-26T10:37:21.388Z,24.97
2018-12-26T10:39:50.554Z,24.57
2018-12-26T10:42:20.016Z,24.27
2018-12-26T10:44:49.170Z,23.53
2018-12-26T10:47:18.352Z,24.80
2018-12-26T10:49:47.573Z,24.27
2018-12-26T10:52:16.724Z,24.63
2018-12-26T10:54:45.933Z,25.60
2018-12-26T10:57:15.104Z,24.93
2018-12-26T10:59:44.280Z,23.03
2018-12-26T11:02:13.465Z,25.47
2018-12-26T11:04:42.615Z,24.03
2018-12-26T11:07:11.782Z,24.93
2018-12-26T11:09:41.116Z,24.93
2018-12-26T11:12:10.315Z,24.93
2018-12-26T11:14:39.640Z,25.30
2018-12-26T11:17:08.849Z,25.33
2018-12-26T11:19:38.164Z,26.13
2018-12-26T11:22:07.352Z,26.00
2018-12-26T11:24:36.536Z,25.83
2018-12-26T11:27:05.814Z,26.67
2018-12-26T11:29:35.002Z,25.43
2018-12-26T11:32:04.427Z,25.43
2018-12-26T11:34:33.675Z,25.93
2018-12-26T11:37:02.939Z,25.77
2018-12-26T11:39:32.130Z,24.83
2018-12-26T11:42:01.380Z,25.43
2018-12-26T11:44:30.607Z,25.27
2018-12-26T11:46:59.810Z,26.47
2018-12-26T11:49:29.004Z,26.77
2018-12-26T11:51:58.289Z,25.70
2018-12-26T11:54:27.549Z,26.63
2018-12-26T11:56:56.762Z,26.87
2018-12-26T11:59:27.355Z,24.73
2018-12-26T12:01:56.929Z,26.03
2018-12-26T12:04:26.107Z,27.90
2018-12-26T12:06:55.299Z,24.97
2018-12-26T12:09:24.503Z,25.23
2018-12-26T12:11:53.782Z,26.40
2018-12-26T12:14:22.987Z,26.20
2018-12-26T12:16:52.158Z,25.63
2018-12-26T12:19:21.363Z,26.33
2018-12-26T12:21:50.551Z,24.47
2018-12-26T12:24:19.758Z,24.70
2018-12-26T12:26:48.949Z,23.20
2018-12-26T12:29:18.175Z,23.43
2018-12-26T12:31:47.401Z,23.37
2018-12-26T12:34:16.616Z,22.80
2018-12-26T12:36:45.800Z,23.23
2018-12-26T12:39:15.073Z,22.73
2018-12-26T12:41:44.341Z,23.10
2018-12-26T12:44:13.644Z,23.20
2018-12-26T12:46:42.847Z,24.13
2018-12-26T12:49:12.044Z,23.23
2018-12-26T12:51:41.313Z,23.27
2018-12-26T12:54:10.651Z,22.13
2018-12-26T12:56:39.944Z,24.23
2018-12-26T12:59:09.140Z,23.70
2018-12-26T13:01:38.374Z,22.63
2018-12-26T13:04:07.527Z,22.67
2018-12-26T13:06:36.773Z,22.87
2018-12-26T13:09:07.605Z,24.67
2018-12-26T13:11:36.775Z,23.17
2018-12-26T13:14:05.977Z,22.40
2018-12-26T13:16:35.171Z,22.47
2018-12-26T13:19:04.422Z,23.27
2018-12-26T13:21:33.588Z,23.27
2018-12-26T13:24:02.775Z,23.17
2018-12-26T13:26:31.969Z,23.37
2018-12-26T13:29:01.220Z,22.00
2018-12-26T13:31:30.522Z,22.90
2018-12-26T13:33:59.847Z,23.03
2018-12-26T13:36:29.112Z,22.63
2018-12-26T13:38:58.277Z,22.77
2018-12-26T13:41:27.479Z,21.33
2018-12-26T13:43:56.760Z,23.60
2018-12-26T13:46:33.543Z,24.87
2018-12-26T13:48:56.865Z,20.67
2018-12-26T13:51:26.051Z,19.90
2018-12-26T13:53:55.253Z,21.03
2018-12-26T13:56:24.554Z,19.30
2018-12-26T13:58:53.754Z,20.70
2018-12-26T14:01:22.996Z,20.83
2018-12-26T14:03:52.198Z,21.70
2018-12-26T14:06:21.372Z,20.53
2018-12-26T14:08:50.592Z,21.07
2018-12-26T14:11:19.767Z,20.50
2018-12-26T14:13:48.931Z,20.63
2018-12-26T14:16:18.192Z,20.77
2018-12-26T14:18:47.380Z,20.20
2018-12-26T14:21:16.619Z,22.10
2018-12-26T14:23:45.771Z,21.00
2018-12-26T14:26:14.977Z,20.57
2018-12-26T14:28:44.167Z,21.93
2018-12-26T14:31:13.360Z,22.73
2018-12-26T14:33:42.530Z,20.33
2018-12-26T14:36:11.723Z,21.73
2018-12-26T14:38:40.935Z,20.80
2018-12-26T14:41:10.232Z,21.03
2018-12-26T14:43:39.428Z,21.50
2018-12-26T14:46:08.627Z,20.73
2018-12-26T14:48:37.844Z,20.80
2018-12-26T14:51:07.016Z,21.87
2018-12-26T14:53:36.279Z,20.87
2018-12-26T14:56:05.459Z,21.03
2018-12-26T14:58:34.711Z,21.90
2018-12-26T15:01:03.947Z,21.23
2018-12-26T15:03:33.398Z,21.23
2018-12-26T15:06:02.687Z,20.93
2018-12-26T15:08:31.843Z,20.83
2018-12-26T15:11:01.231Z,22.10
2018-12-26T15:13:30.573Z,24.60
2018-12-26T15:15:59.823Z,25.13
2018-12-26T15:18:29.018Z,24.63
2018-12-26T15:20:58.227Z,24.87
2018-12-26T15:23:27.409Z,24.87
2018-12-26T15:25:56.676Z,26.13
2018-12-26T15:28:25.895Z,25.50
2018-12-26T15:30:55.145Z,27.03
2018-12-26T15:33:24.343Z,27.47
2018-12-26T15:35:53.551Z,26.93
2018-12-26T15:38:22.707Z,26.83
2018-12-26T15:40:51.910Z,26.77
2018-12-26T15:43:21.139Z,26.57
2018-12-26T15:45:50.351Z,24.83
2018-12-26T15:48:19.603Z,26.00
2018-12-26T15:50:48.804Z,27.03
2018-12-26T15:53:18.061Z,27.10
2018-12-26T15:55:47.325Z,26.73
2018-12-26T15:58:16.506Z,27.83
2018-12-26T16:00:45.775Z,28.07
2018-12-26T16:03:15.067Z,27.13
2018-12-26T16:05:44.323Z,26.90
2018-12-26T16:08:13.612Z,25.63
2018-12-26T16:10:42.959Z,25.87
2018-12-26T16:13:12.333Z,27.03
2018-12-26T16:15:41.779Z,25.90
2018-12-26T16:18:11.222Z,27.60
2018-12-26T16:20:40.495Z,26.13
2018-12-26T16:23:09.681Z,27.57
2018-12-26T16:25:38.972Z,25.87
2018-12-26T16:28:08.144Z,26.30
2018-12-26T16:30:45.927Z,26.83
2018-12-26T16:33:08.328Z,28.07
2018-12-26T16:35:37.585Z,26.63
2018-12-26T16:38:06.763Z,26.73
2018-12-26T16:40:36.004Z,26.87
2018-12-26T16:43:05.346Z,27.37
2018-12-26T16:45:34.608Z,26.73
2018-12-26T16:48:03.896Z,26.80
2018-12-26T16:50:33.139Z,26.73
2018-12-26T16:53:02.435Z,26.87
2018-12-26T16:55:31.676Z,26.03
2018-12-26T16:58:00.886Z,26.73
2018-12-26T17:00:30.140Z,27.77
2018-12-26T17:02:59.365Z,26.50
2018-12-26T17:05:28.650Z,25.80
2018-12-26T17:07:57.913Z,26.40
2018-12-26T17:10:27.214Z,26.47
2018-12-26T17:12:56.401Z,26.80
2018-12-26T17:15:25.774Z,26.37
2018-12-26T17:17:54.971Z,28.30
2018-12-26T17:20:24.228Z,25.80
2018-12-26T17:22:53.518Z,26.23
2018-12-26T17:25:22.812Z,24.87
2018-12-26T17:27:52.099Z,24.50
2018-12-26T17:30:21.303Z,25.63
2018-12-26T17:32:50.588Z,26.67
2018-12-26T17:35:19.873Z,25.07
2018-12-26T17:37:49.036Z,26.83
2018-12-26T17:40:18.216Z,26.70
2018-12-26T17:42:47.433Z,27.37
2018-12-26T17:45:23.522Z,27.17
2018-12-26T17:47:52.796Z,27.80
2018-12-26T17:50:46.203Z,28.13
2018-12-26T17:53:47.282Z,27.70
2018-12-26T17:56:34.319Z,27.80
2018-12-26T17:59:25.101Z,29.03
2018-12-26T18:02:08.602Z,28.73
2018-12-26T18:04:37.887Z,29.03
2018-12-26T18:07:08.224Z,28.10
2018-12-26T18:09:37.447Z,28.30
2018-12-26T18:12:11.837Z,28.70
2018-12-26T18:14:37.912Z,27.73
2018-12-26T18:17:07.093Z,28.80
2018-12-26T18:19:36.720Z,29.23
2018-12-26T18:22:06.075Z,28.43
2018-12-26T18:24:35.300Z,28.20
2018-12-26T18:27:04.524Z,28.47
2018-12-26T18:29:33.787Z,28.90
2018-12-26T18:32:03.131Z,29.63
2018-12-26T18:34:32.468Z,27.13
2018-12-26T18:37:01.728Z,27.60
2018-12-26T18:39:31.931Z,28.20
2018-12-26T18:42:01.120Z,27.20
2018-12-26T18:44:30.400Z,27.63
2018-12-26T18:46:59.700Z,28.10
2018-12-26T18:49:29.099Z,28.10
2018-12-26T18:51:58.371Z,26.03
2018-12-26T18:54:27.832Z,25.73
2018-12-26T18:56:57.244Z,25.57
2018-12-26T18:59:26.539Z,25.07
2018-12-26T19:01:55.740Z,25.00
2018-12-26T19:04:25.042Z,24.30
2018-12-26T19:06:54.223Z,24.83
2018-12-26T19:09:23.506Z,23.70
2018-12-26T19:11:52.713Z,25.17
2018-12-26T19:14:21.903Z,23.90
2018-12-26T19:16:51.105Z,24.13
2018-12-26T19:19:20.312Z,24.47
2018-12-26T19:21:49.537Z,25.23
2018-12-26T19:24:18.776Z,25.63
2018-12-26T19:26:47.961Z,25.90
2018-12-26T19:29:17.262Z,26.33
2018-12-26T19:31:46.533Z,24.87
2018-12-26T19:34:15.743Z,25.73
2018-12-26T19:36:45.005Z,24.30
2018-12-26T19:39:14.199Z,25.33
2018-12-26T19:41:43.464Z,25.03
2018-12-26T19:44:12.720Z,25.97
2018-12-26T19:46:41.963Z,25.00
2018-12-26T19:49:10.757Z,25.17
2018-12-26T19:51:39.510Z,24.73
2018-12-26T19:54:08.244Z,24.33
2018-12-26T19:56:37.006Z,25.77
2018-12-26T19:59:05.783Z,25.30
2018-12-26T20:01:34.644Z,24.20
2018-12-26T20:04:03.419Z,24.73
2018-12-26T20:06:32.426Z,25.50
2018-12-26T20:09:01.473Z,23.73
2018-12-26T20:11:30.212Z,23.70
2018-12-26T20:13:58.972Z,24.27
2018-12-26T20:16:27.692Z,23.03
2018-12-26T20:18:56.336Z,23.90
2018-12-26T20:21:25.070Z,22.67
2018-12-26T20:23:53.894Z,22.37
2018-12-26T20:26:22.826Z,23.27
2018-12-26T20:28:53.433Z,22.03
2018-12-26T20:31:27.781Z,24.10
2018-12-26T20:33:56.546Z,22.03
2018-12-26T20:36:25.263Z,22.13
2018-12-26T20:38:54.015Z,22.10
2018-12-26T20:41:22.728Z,23.00
2018-12-26T20:43:51.475Z,20.90
2018-12-26T20:46:20.129Z,20.90
2018-12-26T20:48:48.905Z,23.60
2018-12-26T20:51:17.652Z,22.53
2018-12-26T20:53:46.300Z,21.10
2018-12-26T20:56:15.047Z,22.33
2018-12-26T20:58:43.752Z,22.10
2018-12-26T21:01:12.547Z,22.20
2018-12-26T21:03:41.280Z,23.27
2018-12-26T21:06:10.075Z,22.97
2018-12-26T21:08:38.770Z,23.10
2018-12-26T21:11:07.517Z,25.67
2018-12-26T21:13:36.250Z,24.50
2018-12-26T21:16:04.966Z,23.67
2018-12-26T21:18:33.749Z,24.93
2018-12-26T21:21:02.580Z,23.40
2018-12-26T21:23:31.363Z,24.27
2018-12-26T21:26:00.101Z,23.67
2018-12-26T21:28:28.912Z,25.20
2018-12-26T21:30:57.731Z,25.00
2018-12-26T21:33:26.571Z,23.93
2018-12-26T21:35:55.326Z,24.70
2018-12-26T21:38:24.052Z,25.33
2018-12-26T21:40:52.818Z,23.57
2018-12-26T21:43:21.520Z,24.90
2018-12-26T21:45:50.267Z,24.87
2018-12-26T21:48:18.991Z,24.80
2018-12-26T21:50:47.630Z,23.63
2018-12-26T21:53:16.720Z,23.80
2018-12-26T21:55:45.501Z,24.40
2018-12-26T21:58:14.207Z,24.80
2018-12-26T22:00:42.919Z,23.63
2018-12-26T22:03:11.608Z,24.23
2018-12-26T22:05:40.315Z,23.83
2018-12-26T22:08:09.005Z,23.80
2018-12-26T22:10:37.650Z,23.97
2018-12-26T22:13:06.299Z,24.03
2018-12-26T22:15:35.053Z,25.43
2018-12-26T22:18:03.805Z,26.67
2018-12-26T22:20:32.667Z,25.33
2018-12-26T22:23:01.454Z,27.10
2018-12-26T22:25:30.184Z,27.40
2018-12-26T22:27:58.943Z,26.97
2018-12-26T22:30:27.686Z,27.50
2018-12-26T22:32:56.409Z,27.30
2018-12-26T22:35:25.160Z,27.23
2018-12-26T22:37:53.797Z,26.80
2018-12-26T22:40:22.595Z,28.23
2018-12-26T22:42:51.330Z,28.37
2018-12-26T22:45:19.968Z,27.33
2018-12-26T22:47:48.654Z,27.17
2018-12-26T22:50:17.385Z,28.40
2018-12-26T22:52:46.131Z,27.83
2018-12-26T22:55:14.773Z,25.63
2018-12-26T22:57:43.454Z,26.13
2018-12-26T23:00:14.501Z,26.40
2018-12-26T23:02:43.324Z,25.27
2018-12-26T23:05:11.999Z,26.50
2018-12-26T23:07:40.801Z,26.37
2018-12-26T23:10:09.509Z,26.97
2018-12-26T23:12:38.133Z,26.10
2018-12-26T23:15:07.271Z,26.83
2018-12-26T23:17:36.012Z,26.97
2018-12-26T23:20:04.724Z,25.77
2018-12-26T23:22:33.413Z,25.67
2018-12-26T23:25:02.069Z,26.13
2018-12-26T23:27:30.807Z,25.40
2018-12-26T23:29:59.519Z,23.77
2018-12-26T23:32:28.251Z,24.43
2018-12-26T23:34:56.963Z,24.53
2018-12-26T23:37:25.643Z,24.37
2018-12-26T23:39:54.272Z,24.40
2018-12-26T23:42:22.928Z,24.43
2018-12-26T23:44:51.644Z,24.40
2018-12-26T23:47:20.368Z,23.87
2018-12-26T23:49:49.100Z,23.03
2018-12-26T23:52:17.755Z,23.50
2018-12-26T23:54:46.519Z,21.90
2018-12-26T23:57:15.231Z,22.00
2018-12-26T23:59:43.931Z,21.93
